Time;durP1;ratioP1;P1;durP2;ratioP2;P2;SDS_P1;SDS_P2;PMS_P1;PMS_P2;Temp;Humidity;BMP_temperature;BMP_pressure;BME280_temperature;BME280_humidity;BME280_pressure;Samples;Min_cycle;Max_cycle;Signal;HPM_P1;HPM_P2
2021/09/11 00:00:03;;;;;;;16.07;14.67;;;18.90;1.00;19.70;100578.00;;;;5020458;28;20469;-85
2021/09/11 00:02:32;;;;;;;17.87;16.27;;;18.80;1.00;19.70;100579.00;;;;5001849;28;20459;-84
2021/09/11 00:05:01;;;;;;;17.60;16.10;;;18.80;1.00;19.60;100569.00;;;;5017842;28;20462;-86
2021/09/11 00:07:30;;;;;;;17.90;16.30;;;18.80;1.00;19.50;100575.00;;;;5002780;28;20478;-85
2021/09/11 00:09:59;;;;;;;16.80;15.30;;;18.80;1.00;19.50;100549.00;;;;5002907;28;20470;-84
2021/09/11 00:12:28;;;;;;;17.37;15.90;;;18.70;1.00;19.50;100577.00;;;;4999061;28;20950;-84
2021/09/11 00:14:56;;;;;;;17.40;15.90;;;18.60;1.00;19.50;100563.00;;;;5003007;28;20454;-84
2021/09/11 00:17:24;;;;;;;17.70;16.00;;;18.60;1.00;19.40;100494.00;;;;5002928;28;20471;-84
2021/09/11 00:19:53;;;;;;;16.93;15.53;;;18.60;1.00;19.40;100555.00;;;;5006859;28;20546;-83
2021/09/11 00:22:21;;;;;;;18.33;16.73;;;18.60;1.00;19.30;100576.00;;;;5008563;28;20450;-84
2021/09/11 00:24:50;;;;;;;19.20;17.60;;;18.50;1.00;19.30;100569.00;;;;5023005;28;20525;-83
2021/09/11 00:27:20;;;;;;;19.10;17.10;;;18.50;1.00;19.30;100579.00;;;;5014885;28;20486;-82
2021/09/11 00:29:48;;;;;;;18.60;17.03;;;18.50;1.00;19.30;100586.00;;;;5019620;28;20514;-83
2021/09/11 00:32:17;;;;;;;20.13;18.13;;;18.50;1.00;19.30;100566.00;;;;5002398;28;20817;-87
2021/09/11 00:34:45;;;;;;;20.70;18.67;;;18.40;1.00;19.20;100509.00;;;;5006691;28;20443;-86
2021/09/11 00:37:14;;;;;;;22.60;20.50;;;18.40;1.00;19.10;100558.00;;;;5035788;28;20467;-87
2021/09/11 00:39:42;;;;;;;19.33;17.47;;;18.40;1.00;19.10;100556.00;;;;5019283;28;20542;-87
2021/09/11 00:42:11;;;;;;;19.73;17.93;;;18.30;1.00;19.10;100595.00;;;;5018647;28;20431;-87
2021/09/11 00:44:41;;;;;;;20.60;18.60;;;18.30;1.00;19.10;100590.00;;;;5017191;28;20458;-86
2021/09/11 00:47:09;;;;;;;19.67;17.97;;;18.30;1.00;19.10;100595.00;;;;5014543;28;20470;-84
2021/09/11 00:49:37;;;;;;;21.27;19.37;;;18.30;1.00;19.00;100567.00;;;;5021096;28;20482;-86
2021/09/11 00:52:07;;;;;;;21.13;19.13;;;18.20;1.00;19.00;100537.00;;;;5019134;28;20446;-85
2021/09/11 00:54:36;;;;;;;22.97;20.77;;;18.30;1.00;19.00;100572.00;;;;5004294;28;20550;-85
2021/09/11 00:57:05;;;;;;;22.13;20.13;;;18.20;1.00;19.00;100582.00;;;;5004783;28;20451;-85
2021/09/11 00:59:33;;;;;;;22.17;20.07;;;18.20;1.00;18.90;100592.00;;;;5016014;28;20482;-86
2021/09/11 01:02:03;;;;;;;22.23;20.00;;;18.20;1.00;19.00;100589.00;;;;5024412;28;20477;-85
2021/09/11 01:04:32;;;;;;;21.90;19.70;;;18.20;1.00;19.00;100600.00;;;;5009444;28;20490;-85
2021/09/11 01:07:01;;;;;;;25.33;22.80;;;18.20;1.00;19.00;100577.00;;;;4997641;28;21516;-85
2021/09/11 01:09:30;;;;;;;24.00;21.77;;;18.30;1.00;19.00;100541.00;;;;5002732;28;20482;-85
2021/09/11 01:12:00;;;;;;;21.50;19.37;;;18.30;1.00;19.00;100586.00;;;;5001925;28;20553;-85
2021/09/11 01:14:28;;;;;;;20.33;18.53;;;18.30;1.00;19.00;100591.00;;;;5000829;28;20451;-85
2021/09/11 01:16:56;;;;;;;19.93;18.03;;;18.30;1.00;19.00;100594.00;;;;5003855;28;20493;-87
2021/09/11 01:19:26;;;;;;;21.73;19.57;;;18.30;1.00;19.00;100544.00;;;;5013477;28;20462;-85
2021/09/11 01:21:54;;;;;;;20.97;19.07;;;18.30;1.00;19.00;100600.00;;;;5015328;28;20479;-85
2021/09/11 01:24:24;;;;;;;20.67;18.83;;;18.30;1.00;19.00;100553.00;;;;5018983;28;20455;-86
2021/09/11 01:26:53;;;;;;;19.97;17.97;;;18.30;1.00;19.00;100594.00;;;;5018204;28;20474;-86
2021/09/11 01:29:21;;;;;;;19.50;17.70;;;18.40;1.00;19.00;100600.00;;;;5017670;28;20457;-86
2021/09/11 01:31:49;;;;;;;18.87;17.27;;;18.30;1.00;19.00;100606.00;;;;5009366;28;20453;-86
2021/09/11 01:34:18;;;;;;;19.63;17.83;;;18.30;1.00;18.90;100602.00;;;;5006728;28;20447;-87
2021/09/11 01:36:46;;;;;;;19.63;17.90;;;18.30;1.00;18.90;100608.00;;;;5005028;28;20559;-87
2021/09/11 01:39:15;;;;;;;19.53;17.93;;;18.20;1.00;19.00;100605.00;;;;5012978;28;20465;-86
2021/09/11 01:41:44;;;;;;;21.47;19.53;;;18.30;1.00;18.90;100599.00;;;;5022058;28;20474;-87
2021/09/11 01:44:13;;;;;;;21.17;19.27;;;18.30;1.00;18.90;100593.00;;;;5024742;28;20430;-86
2021/09/11 01:46:41;;;;;;;19.73;18.10;;;18.30;1.00;19.00;100602.00;;;;5016884;28;20477;-86
2021/09/11 01:49:09;;;;;;;21.07;18.97;;;18.30;1.00;19.00;100529.00;;;;5002889;28;20471;-87
2021/09/11 01:51:46;;;;;;;20.23;18.00;;;18.20;1.00;19.00;100556.00;;;;4996973;28;20439;-87
2021/09/11 01:54:15;;;;;;;19.43;17.63;;;18.20;1.00;19.00;100606.00;;;;4997289;28;20529;-87
2021/09/11 01:56:44;;;;;;;21.63;19.73;;;18.20;1.00;19.10;100600.00;;;;4997158;28;20481;-87
2021/09/11 01:59:13;;;;;;;21.10;19.20;;;18.30;1.00;19.10;100569.00;;;;5007350;28;20473;-86
2021/09/11 02:01:41;;;;;;;21.63;19.60;;;18.30;1.00;19.10;100599.00;;;;5015604;28;20445;-86
2021/09/11 02:04:09;;;;;;;21.50;19.60;;;18.30;1.00;19.10;100604.00;;;;5017012;28;20439;-85
2021/09/11 02:06:38;;;;;;;21.13;19.13;;;18.40;1.00;19.10;100613.00;;;;5022128;28;20538;-86
2021/09/11 02:09:06;;;;;;;20.57;18.67;;;18.30;1.00;19.10;100606.00;;;;5009294;28;20542;-86
2021/09/11 02:11:35;;;;;;;21.73;19.53;;;18.40;1.00;19.00;100527.00;;;;5015858;28;20474;-86
2021/09/11 02:14:05;;;;;;;20.87;19.10;;;18.40;1.00;19.10;100594.00;;;;5016520;28;20478;-86
2021/09/11 02:16:34;;;;;;;21.07;19.27;;;18.40;1.00;19.10;100595.00;;;;5003862;28;20971;-87
2021/09/11 02:19:02;;;;;;;22.17;20.17;;;18.40;1.00;19.10;100598.00;;;;5001499;28;20450;-87
2021/09/11 02:21:31;;;;;;;20.00;18.20;;;18.40;1.00;19.10;100597.00;;;;5011257;28;20490;-88
2021/09/11 02:23:59;;;;;;;20.80;17.80;;;18.40;1.00;19.10;100588.00;;;;5013454;28;20455;-87
2021/09/11 02:26:28;;;;;;;20.93;18.80;;;18.40;1.00;19.10;100559.00;;;;4998291;28;20489;-87
2021/09/11 02:28:56;;;;;;;19.00;17.30;;;18.40;1.00;19.10;100601.00;;;;5013040;28;20470;-86
2021/09/11 02:31:26;;;;;;;21.40;19.40;;;18.40;1.00;19.00;100568.00;;;;5013421;28;20870;-87
2021/09/11 02:33:55;;;;;;;21.43;19.30;;;18.40;1.00;19.10;100557.00;;;;4995096;28;21259;-87
2021/09/11 02:36:23;;;;;;;20.90;19.20;;;18.30;1.00;19.10;100589.00;;;;4995537;28;20501;-88
2021/09/11 02:38:52;;;;;;;21.20;19.30;;;18.30;1.00;19.10;100550.00;;;;4995181;28;20459;-87
2021/09/11 02:41:20;;;;;;;21.40;19.50;;;18.30;1.00;19.10;100602.00;;;;4995313;28;20458;-87
2021/09/11 02:43:48;;;;;;;21.40;19.40;;;18.30;1.00;19.10;100600.00;;;;4994638;28;20459;-88
2021/09/11 02:46:17;;;;;;;21.90;19.73;;;18.30;1.00;19.10;100570.00;;;;5005360;28;20529;-87
2021/09/11 02:48:47;;;;;;;22.70;20.67;;;18.30;1.00;19.00;100576.00;;;;5013791;28;20470;-88
2021/09/11 02:51:24;;;;;;;21.07;19.00;;;18.30;1.00;19.00;100558.00;;;;5014096;28;20453;-87
2021/09/11 02:53:53;;;;;;;22.60;20.53;;;18.30;1.00;18.90;100605.00;;;;5014128;28;20439;-87
2021/09/11 02:56:21;;;;;;;21.10;19.10;;;18.20;1.00;18.90;100558.00;;;;5009048;28;20466;-87
2021/09/11 02:58:50;;;;;;;19.97;18.07;;;18.20;1.00;18.90;100578.00;;;;5000789;28;20526;-86
2021/09/11 03:01:18;;;;;;;22.23;20.23;;;18.20;1.00;18.80;100597.00;;;;5011143;28;20522;-85
2021/09/11 03:03:48;;;;;;;21.10;19.23;;;18.10;1.00;18.80;100589.00;;;;4987562;28;20493;-86
2021/09/11 03:06:17;;;;;;;22.30;20.10;;;18.10;1.00;18.70;100541.00;;;;4989118;28;20467;-85
2021/09/11 03:08:45;;;;;;;22.67;20.60;;;18.00;1.00;18.70;100610.00;;;;4987322;28;20459;-86
2021/09/11 03:11:14;;;;;;;21.70;19.63;;;18.00;1.00;18.60;100589.00;;;;5024423;28;20522;-85
2021/09/11 03:13:43;;;;;;;25.30;22.90;;;18.00;1.00;18.60;100559.00;;;;5016894;28;20542;-85
2021/09/11 03:16:11;;;;;;;22.80;20.90;;;17.90;1.00;18.60;100604.00;;;;5033270;28;20529;-86
2021/09/11 03:18:40;;;;;;;23.93;21.73;;;17.90;1.00;18.50;100546.00;;;;5008176;28;20431;-86
2021/09/11 03:21:10;;;;;;;22.90;20.57;;;17.90;1.00;18.40;100576.00;;;;5029707;28;20526;-86
2021/09/11 03:23:38;;;;;;;21.60;19.80;;;17.90;1.00;18.50;100506.00;;;;5008796;28;20483;-86
2021/09/11 03:26:06;;;;;;;24.13;21.83;;;17.90;1.00;18.50;100507.00;;;;4995425;28;20525;-86
2021/09/11 03:28:35;;;;;;;23.90;21.77;;;17.80;1.00;18.50;100600.00;;;;5001453;28;20963;-87
2021/09/11 03:31:03;;;;;;;22.30;20.30;;;17.90;1.00;18.50;100590.00;;;;4976920;28;20472;-87
2021/09/11 03:33:31;;;;;;;23.83;21.43;;;17.90;1.00;18.50;100599.00;;;;4992163;28;20442;-87
2021/09/11 03:36:00;;;;;;;21.80;19.90;;;17.80;1.00;18.50;100607.00;;;;4992453;28;20573;-86
2021/09/11 03:38:30;;;;;;;21.97;19.67;;;17.90;1.00;18.60;100607.00;;;;4989589;28;21058;-86
2021/09/11 03:40:58;;;;;;;22.80;20.80;;;17.90;1.00;18.60;100601.00;;;;5001789;28;20455;-87
2021/09/11 03:43:26;;;;;;;22.30;20.30;;;17.90;1.00;18.60;100605.00;;;;5013654;28;20478;-86
2021/09/11 03:45:55;;;;;;;20.97;19.07;;;17.90;1.00;18.70;100607.00;;;;4991344;28;20924;-87
2021/09/11 03:48:23;;;;;;;20.57;18.67;;;17.90;1.00;18.70;100601.00;;;;5008804;28;20521;-86
2021/09/11 03:50:52;;;;;;;20.80;19.00;;;17.90;1.00;18.80;100603.00;;;;4992355;28;20475;-86
2021/09/11 03:53:20;;;;;;;21.50;19.60;;;18.00;1.00;18.80;100599.00;;;;4992943;28;20473;-86
2021/09/11 03:55:50;;;;;;;20.40;18.50;;;18.10;1.00;18.90;100612.00;;;;4995746;28;20466;-87
2021/09/11 03:58:18;;;;;;;21.40;19.40;;;18.00;1.00;18.90;100612.00;;;;4997707;28;20458;-87
2021/09/11 04:00:47;;;;;;;21.67;19.67;;;18.10;1.00;19.00;100610.00;;;;4997007;28;20967;-86
2021/09/11 04:03:16;;;;;;;21.37;19.27;;;18.10;1.00;19.00;100611.00;;;;5003386;28;20457;-86
2021/09/11 04:05:44;;;;;;;19.37;17.70;;;18.20;1.00;19.00;100563.00;;;;5003798;28;20482;-86
2021/09/11 04:08:13;;;;;;;18.63;17.03;;;18.20;1.00;19.00;100615.00;;;;5011044;28;20537;-87
2021/09/11 04:10:41;;;;;;;21.00;19.00;;;18.20;1.00;19.00;100609.00;;;;5006756;28;20467;-87
2021/09/11 04:13:11;;;;;;;20.47;18.57;;;18.20;1.00;19.00;100594.00;;;;4997908;28;20458;-86
2021/09/11 04:15:39;;;;;;;20.20;18.40;;;18.20;1.00;19.00;100640.00;;;;5022228;28;20490;-87
2021/09/11 04:18:07;;;;;;;23.60;21.50;;;18.20;1.00;19.10;100613.00;;;;5016717;28;20475;-86
2021/09/11 04:20:36;;;;;;;21.50;19.60;;;18.20;1.00;19.00;100563.00;;;;5031897;28;20451;-86
2021/09/11 04:23:04;;;;;;;20.43;18.70;;;18.20;1.00;19.00;100627.00;;;;5007169;28;20463;-86
2021/09/11 04:25:33;;;;;;;22.07;19.97;;;18.30;1.00;19.00;100516.00;;;;4989317;28;21033;-86
2021/09/11 04:28:02;;;;;;;21.43;19.37;;;18.20;1.00;19.00;100620.00;;;;4998439;28;20427;-86
2021/09/11 04:30:31;;;;;;;20.50;18.73;;;18.20;1.00;19.00;100582.00;;;;5009707;28;20486;-86
2021/09/11 04:33:00;;;;;;;20.67;18.83;;;18.20;1.00;19.00;100626.00;;;;4996568;28;20808;-87
2021/09/11 04:35:30;;;;;;;20.60;18.60;;;18.20;1.00;19.00;100601.00;;;;4984006;28;20438;-87
2021/09/11 04:37:59;;;;;;;21.00;19.10;;;18.20;1.00;18.90;100583.00;;;;5011816;28;20972;-87
2021/09/11 04:40:28;;;;;;;18.00;16.47;;;18.10;1.00;19.00;100627.00;;;;4996704;28;20896;-87
2021/09/11 04:42:57;;;;;;;20.30;18.37;;;18.10;1.00;19.00;100621.00;;;;5022291;28;20560;-87
2021/09/11 04:45:26;;;;;;;19.93;18.17;;;18.10;1.00;19.00;100622.00;;;;5010477;28;21018;-87
2021/09/11 04:47:56;;;;;;;19.50;17.70;;;18.10;1.00;18.90;100629.00;;;;4980323;28;20492;-87
2021/09/11 04:50:25;;;;;;;19.37;17.67;;;18.10;1.00;19.00;100625.00;;;;5011418;28;20870;-86
2021/09/11 04:52:53;;;;;;;19.70;17.80;;;18.10;1.00;18.90;100623.00;;;;5030970;28;20431;-85
2021/09/11 04:55:21;;;;;;;20.10;18.20;;;18.10;1.00;18.90;100611.00;;;;5029419;28;20541;-87
2021/09/11 04:57:50;;;;;;;19.13;17.50;;;18.10;1.00;18.90;100622.00;;;;5000161;28;20451;-86
2021/09/11 05:00:18;;;;;;;19.90;18.00;;;18.10;1.00;18.90;100591.00;;;;5002744;28;20487;-86
2021/09/11 05:02:47;;;;;;;19.53;17.73;;;18.10;1.00;18.90;100619.00;;;;5008018;28;20465;-86
2021/09/11 05:05:18;;;;;;;18.17;16.40;;;18.10;1.00;18.80;100603.00;;;;5019775;28;20458;-86
2021/09/11 05:07:46;;;;;;;18.43;16.77;;;18.00;1.00;18.80;100622.00;;;;5010999;28;20522;-86
2021/09/11 05:10:14;;;;;;;18.17;16.37;;;18.00;1.00;18.80;100553.00;;;;5011592;28;20952;-86
2021/09/11 05:12:43;;;;;;;17.77;16.17;;;18.00;1.00;18.70;100596.00;;;;5030553;28;20530;-85
2021/09/11 05:15:12;;;;;;;18.90;17.10;;;18.00;1.00;18.80;100560.00;;;;5008067;28;20986;-86
2021/09/11 05:17:40;;;;;;;16.70;15.20;;;18.00;1.00;18.70;100576.00;;;;4996045;28;20594;-86
2021/09/11 05:20:09;;;;;;;16.90;15.40;;;18.00;1.00;18.80;100618.00;;;;5011145;28;20458;-86
2021/09/11 05:22:40;;;;;;;17.50;15.90;;;18.00;1.00;18.80;100533.00;;;;4995814;28;20462;-86
2021/09/11 05:25:11;;;;;;;17.63;16.10;;;18.00;1.00;18.80;100634.00;;;;4997197;28;21030;-85
2021/09/11 05:27:39;;;;;;;16.60;15.10;;;18.00;1.00;18.80;100630.00;;;;5013457;28;20482;-85
2021/09/11 05:30:10;;;;;;;16.17;14.67;;;18.10;1.00;18.80;100631.00;;;;4995542;28;20943;-86
2021/09/11 05:32:38;;;;;;;15.07;13.67;;;18.00;1.00;18.60;100632.00;;;;5000048;28;20943;-86
2021/09/11 05:35:09;;;;;;;17.07;15.47;;;18.10;1.00;18.80;100603.00;;;;4997820;28;20952;-86
2021/09/11 05:37:39;;;;;;;16.30;14.70;;;18.10;1.00;18.90;100621.00;;;;4996634;28;20475;-87
2021/09/11 05:40:08;;;;;;;15.80;14.20;;;18.10;1.00;18.90;100628.00;;;;4996371;28;20543;-87
2021/09/11 05:42:37;;;;;;;14.63;13.30;;;18.10;1.00;18.90;100638.00;;;;4997813;28;20561;-86
2021/09/11 05:45:08;;;;;;;14.90;13.40;;;18.10;1.00;19.00;100625.00;;;;4996220;28;20451;-87
2021/09/11 05:47:36;;;;;;;14.03;12.80;;;18.20;1.00;19.10;100625.00;;;;4996317;28;20525;-87
2021/09/11 05:50:06;;;;;;;14.07;12.80;;;18.20;1.00;19.10;100631.00;;;;5013180;28;20452;-87
2021/09/11 05:52:35;;;;;;;13.70;12.50;;;18.30;1.00;19.20;100539.00;;;;4993048;28;20820;-87
2021/09/11 05:55:06;;;;;;;13.10;11.90;;;18.40;1.00;19.20;100616.00;;;;5005731;28;20446;-86
2021/09/11 05:57:34;;;;;;;13.33;12.13;;;18.50;1.00;19.30;100627.00;;;;5001977;28;20482;-86
2021/09/11 06:00:04;;;;;;;12.20;11.00;;;18.50;1.00;19.50;100612.00;;;;5015847;28;20471;-86
2021/09/11 06:02:38;;;;;;;11.90;10.87;;;18.60;1.00;19.60;100642.00;;;;4996570;28;20434;-86
2021/09/11 06:05:08;;;;;;;11.93;10.70;;;18.80;1.00;19.80;100616.00;;;;5025872;28;20458;-86
2021/09/11 06:07:37;;;;;;;12.07;10.87;;;19.00;1.00;20.00;100628.00;;;;5017384;28;20538;-86
2021/09/11 06:10:09;;;;;;;11.87;10.70;;;19.10;1.00;20.00;100599.00;;;;5012316;28;20435;-86
2021/09/11 06:12:38;;;;;;;11.27;10.23;;;19.10;1.00;20.00;100618.00;;;;4997613;28;20458;-87
2021/09/11 06:15:08;;;;;;;10.87;9.90;;;19.10;1.00;20.00;100644.00;;;;4998639;28;20457;-86
2021/09/11 06:17:36;;;;;;;10.87;9.97;;;19.00;1.00;19.90;100623.00;;;;4993917;28;20479;-85
2021/09/11 06:20:07;;;;;;;10.87;9.60;;;19.00;1.00;19.90;100630.00;;;;4990721;28;20481;-87
2021/09/11 06:22:36;;;;;;;11.33;10.03;;;19.00;1.00;19.90;100577.00;;;;4996612;28;20455;-87
2021/09/11 06:25:06;;;;;;;9.83;9.03;;;19.00;1.00;19.80;100630.00;;;;4995707;28;20458;-86
2021/09/11 06:27:36;;;;;;;12.30;10.00;;;19.00;1.00;19.90;100604.00;;;;5011236;28;20557;-87
2021/09/11 06:30:06;;;;;;;11.90;10.70;;;19.10;1.00;20.00;100573.00;;;;4999062;28;20458;-87
2021/09/11 06:32:34;;;;;;;9.93;9.03;;;19.00;1.00;20.10;100623.00;;;;4996541;28;20484;-87
2021/09/11 06:35:03;;;;;;;9.97;9.17;;;19.20;1.00;20.10;100597.00;;;;5001389;28;20473;-85
2021/09/11 06:37:35;;;;;;;11.13;10.07;;;19.20;1.00;20.00;100630.00;;;;4999491;28;22089;-86
2021/09/11 06:40:08;;;;;;;10.20;9.30;;;19.30;1.00;20.30;100654.00;;;;5000588;28;20869;-87
2021/09/11 06:42:37;;;;;;;10.00;9.07;;;19.40;1.00;20.40;100627.00;;;;5030660;28;20459;-86
2021/09/11 06:45:07;;;;;;;10.67;9.57;;;19.60;1.00;20.40;100657.00;;;;5014117;28;20482;-87
2021/09/11 06:47:36;;;;;;;10.07;9.17;;;19.50;1.00;20.30;100613.00;;;;5015253;28;20486;-86
2021/09/11 06:50:06;;;;;;;10.87;9.87;;;19.50;1.00;20.50;100655.00;;;;5015287;28;20449;-86
2021/09/11 06:52:34;;;;;;;10.47;9.50;;;19.50;1.00;20.50;100611.00;;;;5030672;28;20570;-87
2021/09/11 06:55:03;;;;;;;11.23;10.17;;;19.60;1.00;20.60;100604.00;;;;5030252;28;20447;-86
2021/09/11 06:57:32;;;;;;;10.20;9.20;;;19.70;1.00;20.80;100658.00;;;;5009504;28;20834;-86
2021/09/11 07:00:03;;;;;;;11.13;10.00;;;19.90;1.00;21.00;100666.00;;;;5031684;28;20434;-86
2021/09/11 07:02:31;;;;;;;10.43;9.53;;;20.10;1.00;21.30;100614.00;;;;5015561;28;20432;-86
2021/09/11 07:05:00;;;;;;;11.37;10.27;;;20.30;1.00;21.40;100604.00;;;;5015449;28;20470;-86
2021/09/11 07:07:29;;;;;;;11.37;10.37;;;20.50;1.00;21.40;100626.00;;;;5001861;28;20478;-87
2021/09/11 07:09:57;;;;;;;10.90;9.90;;;20.40;1.00;21.20;100632.00;;;;5014263;28;20459;-86
2021/09/11 07:12:26;;;;;;;10.97;9.63;;;20.30;1.00;21.00;100618.00;;;;4987919;28;21057;-83
2021/09/11 07:14:56;;;;;;;11.03;9.90;;;20.10;1.00;20.80;100672.00;;;;5008678;28;20821;-84
2021/09/11 07:17:26;;;;;;;10.53;9.57;;;19.90;1.00;20.60;100674.00;;;;5009133;28;20501;-82
2021/09/11 07:19:54;;;;;;;11.40;10.50;;;19.70;1.00;20.60;100669.00;;;;5000826;28;20492;-84
2021/09/11 07:22:23;;;;;;;13.10;11.93;;;19.60;1.00;20.50;100623.00;;;;4993552;28;20458;-84
2021/09/11 07:24:51;;;;;;;12.60;10.93;;;19.60;1.00;20.50;100683.00;;;;5003275;28;20542;-83
2021/09/11 07:27:19;;;;;;;11.60;10.60;;;19.60;1.00;20.60;100683.00;;;;5004027;28;20466;-84
2021/09/11 07:29:48;;;;;;;13.00;11.80;;;19.60;1.00;20.70;100683.00;;;;5014734;28;20462;-84
2021/09/11 07:32:16;;;;;;;12.83;11.70;;;19.70;1.00;20.70;100687.00;;;;5010602;28;20483;-83
2021/09/11 07:34:46;;;;;;;13.03;11.77;;;19.70;1.00;20.60;100695.00;;;;5015238;28;20553;-84
2021/09/11 07:37:14;;;;;;;15.53;11.93;;;19.80;1.00;20.60;100681.00;;;;5012076;28;20561;-84
2021/09/11 07:39:43;;;;;;;13.13;12.00;;;19.80;1.00;20.70;100682.00;;;;5022703;28;20543;-84
2021/09/11 07:42:11;;;;;;;12.60;11.50;;;19.90;1.00;20.90;100613.00;;;;5014346;28;20459;-85
2021/09/11 07:44:40;;;;;;;12.40;11.13;;;20.00;1.00;21.00;100683.00;;;;5011347;28;20466;-83
2021/09/11 07:47:08;;;;;;;11.70;10.70;;;20.20;1.00;20.90;100631.00;;;;5000240;28;20539;-83
2021/09/11 07:49:37;;;;;;;11.80;10.73;;;20.20;1.00;21.20;100650.00;;;;5000605;28;20451;-85
2021/09/11 07:52:08;;;;;;;11.40;10.40;;;20.40;1.00;21.30;100691.00;;;;5002562;28;20478;-83
2021/09/11 07:54:37;;;;;;;12.10;10.50;;;20.50;1.00;21.40;100613.00;;;;5010274;28;20510;-83
2021/09/11 07:57:06;;;;;;;11.50;10.40;;;20.70;1.00;21.70;100681.00;;;;5026069;28;20482;-83
2021/09/11 07:59:35;;;;;;;11.57;10.37;;;20.90;1.00;21.80;100688.00;;;;5022532;28;20451;-84
2021/09/11 08:02:04;;;;;;;10.73;9.83;;;21.00;1.00;21.70;100637.00;;;;5016329;28;20439;-83
2021/09/11 08:04:32;;;;;;;10.33;9.37;;;21.10;1.00;21.70;100685.00;;;;5030323;28;20493;-84
2021/09/11 08:07:01;;;;;;;10.43;9.43;;;20.90;1.00;21.80;100644.00;;;;5001672;28;20490;-82
2021/09/11 08:09:31;;;;;;;11.43;10.23;;;21.00;1.00;21.70;100635.00;;;;5011672;28;20463;-85
2021/09/11 08:11:59;;;;;;;10.60;9.50;;;21.00;1.00;21.90;100693.00;;;;5013283;28;20478;-82
2021/09/11 08:14:27;;;;;;;10.97;10.00;;;21.10;1.00;22.00;100690.00;;;;5011049;28;20455;-83
2021/09/11 08:16:56;;;;;;;11.60;9.77;;;21.20;1.00;22.20;100656.00;;;;5031947;28;20466;-84
2021/09/11 08:19:24;;;;;;;9.90;9.10;;;21.30;1.00;22.30;100693.00;;;;5028985;28;22138;-84
2021/09/11 08:21:53;;;;;;;10.03;9.20;;;21.40;1.00;22.30;100707.00;;;;5013872;28;20518;-83
2021/09/11 08:24:21;;;;;;;10.73;9.70;;;21.40;1.00;22.10;100711.00;;;;5000308;28;20469;-84
2021/09/11 08:26:51;;;;;;;9.57;8.77;;;21.40;1.00;22.30;100694.00;;;;5009889;28;20478;-84
2021/09/11 08:29:19;;;;;;;10.33;9.50;;;21.40;1.00;22.50;100710.00;;;;5011410;28;20467;-84
2021/09/11 08:31:48;;;;;;;9.40;8.60;;;21.40;1.00;22.60;100707.00;;;;5011936;28;20481;-84
2021/09/11 08:34:16;;;;;;;9.73;8.83;;;21.70;1.00;22.70;100689.00;;;;5006248;28;20455;-86
2021/09/11 08:36:44;;;;;;;9.80;8.90;;;21.80;1.00;22.80;100693.00;;;;5030291;28;20477;-83
2021/09/11 08:39:26;;;;;;;11.30;8.43;;;21.90;1.00;22.90;100721.00;;;;5012445;28;20458;-84
2021/09/11 08:41:57;;;;;;;11.93;8.80;;;22.00;1.00;23.00;100661.00;;;;5009693;28;20458;-85
2021/09/11 08:44:26;;;;;;;9.33;8.40;;;22.00;1.00;23.10;100714.00;;;;5023795;28;20447;-84
2021/09/11 08:46:55;;;;;;;10.10;9.03;;;22.00;1.00;23.10;100724.00;;;;5005282;28;20475;-84
2021/09/11 08:49:24;;;;;;;9.47;8.57;;;22.20;1.00;23.30;100719.00;;;;5031795;28;20489;-84
2021/09/11 08:51:53;;;;;;;11.57;9.47;;;22.20;1.00;23.50;100721.00;;;;5033199;28;20470;-82
2021/09/11 08:54:22;;;;;;;9.83;8.40;;;22.40;1.00;23.60;100710.00;;;;5038386;28;20443;-83
2021/09/11 08:56:51;;;;;;;8.47;7.57;;;22.60;1.00;23.70;100634.00;;;;5019784;28;20502;-85
2021/09/11 08:59:21;;;;;;;8.97;8.07;;;22.80;1.00;23.80;100658.00;;;;5008559;28;20541;-85
2021/09/11 09:02:06;;;;;;;8.90;8.20;;;22.80;1.00;24.00;100713.00;;;;4997055;28;20470;-85
2021/09/11 09:04:48;;;;;;;8.00;7.27;;;22.90;1.00;24.20;100691.00;;;;4997991;28;20450;-85
2021/09/11 09:07:38;;;;;;;10.87;7.90;;;23.20;1.00;24.50;100698.00;;;;5001254;28;20451;-85
2021/09/11 09:10:11;;;;;;;8.93;8.03;;;23.50;1.00;24.90;100717.00;;;;5003877;28;20546;-85
2021/09/11 09:12:43;;;;;;;10.00;7.63;;;23.90;1.00;24.70;100717.00;;;;5005921;28;20490;-86
2021/09/11 09:15:15;;;;;;;7.70;7.00;;;24.00;1.00;24.40;100713.00;;;;4997874;28;20486;-85
2021/09/11 09:17:47;;;;;;;7.50;6.70;;;23.80;1.00;24.40;100720.00;;;;5006983;28;20497;-86
2021/09/11 09:20:21;;;;;;;7.77;6.83;;;23.70;1.00;24.30;100716.00;;;;5009961;28;20446;-86
2021/09/11 09:23:08;;;;;;;7.77;7.00;;;23.50;1.00;24.20;100741.00;;;;5024793;28;20434;-85
2021/09/11 09:25:38;;;;;;;7.60;6.63;;;23.30;1.00;24.10;100727.00;;;;5027980;28;20474;-84
2021/09/11 09:28:09;;;;;;;7.57;6.97;;;23.20;1.00;24.00;100725.00;;;;5009179;28;20681;-85
2021/09/11 09:30:43;;;;;;;7.10;6.50;;;23.10;1.00;24.10;100728.00;;;;5003993;28;20451;-82
2021/09/11 09:33:20;;;;;;;6.73;6.13;;;23.10;1.00;24.00;100720.00;;;;4995540;28;20581;-82
2021/09/11 09:35:49;;;;;;;8.07;7.27;;;23.10;1.00;24.10;100722.00;;;;5003133;28;20489;-81
2021/09/11 09:38:18;;;;;;;7.30;6.67;;;23.10;1.00;24.20;100720.00;;;;4982298;28;20469;-82
2021/09/11 09:40:49;;;;;;;8.80;7.97;;;23.20;1.00;24.30;100693.00;;;;4983836;28;20452;-80
2021/09/11 09:43:32;;;;;;;7.77;6.97;;;23.30;1.00;24.50;100720.00;;;;5008155;28;20494;-82
2021/09/11 09:46:08;;;;;;;10.60;8.40;;;23.40;1.00;24.80;100710.00;;;;4993878;28;20467;-81
2021/09/11 09:48:38;;;;;;;9.50;8.03;;;23.70;1.00;25.10;100704.00;;;;5004558;28;20454;-81
2021/09/11 09:51:08;;;;;;;6.70;6.10;;;23.90;1.00;25.30;100701.00;;;;4993702;28;20861;-80
2021/09/11 09:53:38;;;;;;;8.70;6.70;;;24.10;1.00;25.30;100713.00;;;;5003843;28;20521;-78
2021/09/11 09:56:08;;;;;;;8.03;7.20;;;24.20;1.00;25.40;100706.00;;;;5003219;28;20581;-81
2021/09/11 09:58:38;;;;;;;8.20;6.33;;;24.30;1.00;25.20;100704.00;;;;5001302;28;20457;-82
2021/09/11 10:01:08;;;;;;;7.17;6.57;;;24.20;1.00;24.80;100706.00;;;;5007265;28;20458;-81
2021/09/11 10:03:37;;;;;;;7.80;7.00;;;23.80;1.00;24.50;100710.00;;;;5006639;28;20450;-79
2021/09/11 10:06:15;;;;;;;6.27;5.67;;;23.60;1.00;24.20;100718.00;;;;5007737;28;20506;-82
2021/09/11 10:08:48;;;;;;;7.27;6.67;;;23.40;1.00;24.20;100706.00;;;;5005235;28;20603;-81
2021/09/11 10:11:17;;;;;;;8.00;7.30;;;23.40;1.00;24.30;100709.00;;;;5008850;28;20463;-81
2021/09/11 10:14:00;;;;;;;7.20;6.33;;;23.60;1.00;24.20;100695.00;;;;5006216;28;20470;-81
2021/09/11 10:16:35;;;;;;;7.77;7.07;;;23.60;1.00;24.40;100701.00;;;;5002430;28;20485;-79
2021/09/11 10:19:23;;;;;;;6.90;6.07;;;23.80;1.00;24.40;100641.00;;;;5003240;28;22410;-79
2021/09/11 10:22:07;;;;;;;6.00;5.40;;;24.00;1.00;24.40;100711.00;;;;5008160;28;20572;-80
2021/09/11 10:24:37;;;;;;;7.47;6.77;;;23.80;1.00;24.50;100705.00;;;;5009257;28;20458;-80
2021/09/11 10:27:11;;;;;;;7.20;6.40;;;23.80;1.00;24.80;100694.00;;;;5007016;28;21080;-81
2021/09/11 10:29:52;;;;;;;6.70;6.10;;;24.10;1.00;25.00;100680.00;;;;5012283;28;20455;-80
2021/09/11 10:32:36;;;;;;;6.30;5.70;;;24.20;1.00;25.20;100687.00;;;;5009629;28;20454;-80
2021/09/11 10:35:07;;;;;;;7.80;6.50;;;24.40;1.00;25.70;100659.00;;;;5012670;28;20450;-81
2021/09/11 10:37:45;;;;;;;6.43;5.83;;;24.80;1.00;26.20;100663.00;;;;5001253;28;20477;-82
2021/09/11 10:40:35;;;;;;;6.13;5.37;;;25.40;1.00;26.70;100669.00;;;;5020338;28;20458;-85
2021/09/11 10:43:16;;;;;;;6.63;5.47;;;25.80;1.00;26.70;100667.00;;;;5030136;28;20467;-82
2021/09/11 10:45:51;;;;;;;5.27;4.77;;;25.90;1.00;26.90;100670.00;;;;5022643;28;20467;-83
2021/09/11 10:48:52;;;;;;;5.60;5.10;;;26.20;1.00;26.70;100656.00;;;;5017169;28;20490;-82
2021/09/11 10:51:29;;;;;;;5.63;5.13;;;26.00;1.00;27.00;100660.00;;;;5016840;28;20443;-83
2021/09/11 10:54:02;;;;;;;6.33;5.37;;;26.10;1.00;26.90;100674.00;;;;5007209;28;20522;-80